Thunder radar more information blitzortung!


Radar de pluja more information rain snow radar


Visita la nostra xarxa de llocs de meteo:

Template documentation
and downloads

And another site



Wind From: 11-12-2017 11:00 Until: 14:59 warning for: Wind Level: Yellow info button

Pagina Historial Weather Underground text

Diari Resum Setembre 26, 2017 Unitats:  Tant    Imperial   Mètric
« Previous Dia
SegĂźent Dia »
Diari Setmana Mensual Anual Personalitzada
  Maxima: Minima: Media:
Temperatura: 78.4 °F /  25.8 °C 58.5 °F /  14.7 °C 69.3 °F /  20.7 °C
Punt de rosada: 59.4 °F /  15.2 °C 52.5 °F /  11.4 °C 55.4 °F /  13 °C
Humitat: 83 % 44 % 63 %
Wind Speed: 12.7 mph /  20.4 km/h - 3.3 mph /  5.3 km/h
RĂ fegues de vent: 12.7 mph /  20.4 km/h - -
Vent:- - SSW
Pression baro: 30.2 in /  1022.9 hPa 30.1 in /  1017.8 hPa -
Precipitacions: 0 in /  0.0 mm    
Historical Graphs
 
 
Dades de taula per Setembre 26, 2017
Temps Temperatura Punt de rosada Pression baro Vent Wind Speed RĂ fegues de vent Humitat Rainfall Rate (Hourly)
00:04 61.9 °F /  16.6 °C 54.7 °F /  12.6 °C 30.2 in /  1021.9 hPa Calm     77 % 0 in /  0.0 mm
00:20 59.7 °F /  15.4 °C 54 °F /  12.2 °C 30.2 in /  1020.9 hPa Calm     81 % 0 in /  0.0 mm
00:30 59.5 °F /  15.3 °C 53.8 °F /  12.1 °C 30.2 in /  1020.9 hPa WSW 2 mph /  3.2 km/h 3 mph /  4.8 km/h 81 % 0 in /  0.0 mm
00:40 59.4 °F /  15.2 °C 53.4 °F /  11.9 °C 30.2 in /  1020.9 hPa SW 2 mph /  3.2 km/h 2 mph /  3.2 km/h 81 % 0 in /  0.0 mm
00:50 59.2 °F /  15.1 °C 53.8 °F /  12.1 °C 30.2 in /  1020.9 hPa Calm   3 mph /  4.8 km/h 82 % 0 in /  0.0 mm
01:00 59 °F /  15.0 °C 53.4 °F /  11.9 °C 30.1 in /  1019.9 hPa SW 2 mph /  3.2 km/h 2 mph /  3.2 km/h 82 % 0 in /  0.0 mm
01:10 59 °F /  15.0 °C 53.8 °F /  12.1 °C 30.1 in /  1019.9 hPa SW 1 mph /  1.6 km/h 3 mph /  4.8 km/h 83 % 0 in /  0.0 mm
01:20 59 °F /  15.0 °C 53.8 °F /  12.1 °C 30.1 in /  1019.9 hPa Calm   1 mph /  1.6 km/h 83 % 0 in /  0.0 mm
01:30 59 °F /  15.0 °C 53.8 °F /  12.1 °C 30.1 in /  1019.9 hPa SW 1 mph /  1.6 km/h 2 mph /  3.2 km/h 83 % 0 in /  0.0 mm
01:40 59 °F /  15.0 °C 53.8 °F /  12.1 °C 30.2 in /  1020.9 hPa SW 2 mph /  3.2 km/h 2 mph /  3.2 km/h 83 % 0 in /  0.0 mm
01:45 59 °F /  15.0 °C 53.8 °F /  12.1 °C 30.2 in /  1020.9 hPa WSW 1 mph /  1.6 km/h 2 mph /  3.2 km/h 83 % 0 in /  0.0 mm
01:55 59 °F /  15.0 °C 53.8 °F /  12.1 °C 30.2 in /  1020.9 hPa Calm   2 mph /  3.2 km/h 83 % 0 in /  0.0 mm
02:05 58.8 °F /  14.9 °C 53.8 °F /  12.1 °C 30.2 in /  1020.9 hPa Calm   1 mph /  1.6 km/h 83 % 0 in /  0.0 mm
02:15 58.6 °F /  14.8 °C 53.4 °F /  11.9 °C 30.2 in /  1020.9 hPa Calm     83 % 0 in /  0.0 mm
02:25 58.8 °F /  14.9 °C 53.8 °F /  12.1 °C 30.2 in /  1020.9 hPa Calm   1 mph /  1.6 km/h 83 % 0 in /  0.0 mm
02:35 58.8 °F /  14.9 °C 53.2 °F /  11.8 °C 30.2 in /  1020.9 hPa NW 1 mph /  1.6 km/h 2 mph /  3.2 km/h 82 % 0 in /  0.0 mm
02:45 58.8 °F /  14.9 °C 53.2 °F /  11.8 °C 30.2 in /  1020.9 hPa West 1 mph /  1.6 km/h 2 mph /  3.2 km/h 82 % 0 in /  0.0 mm
02:55 58.8 °F /  14.9 °C 53.2 °F /  11.8 °C 30.2 in /  1020.9 hPa Calm   1 mph /  1.6 km/h 82 % 0 in /  0.0 mm
03:05 58.5 °F /  14.7 °C 52.5 °F /  11.4 °C 30.2 in /  1020.9 hPa WSW 1 mph /  1.6 km/h 2 mph /  3.2 km/h 81 % 0 in /  0.0 mm
03:15 58.6 °F /  14.8 °C 53.2 °F /  11.8 °C 30.2 in /  1021.9 hPa Calm   2 mph /  3.2 km/h 82 % 0 in /  0.0 mm
03:25 59 °F /  15.0 °C 53.2 °F /  11.8 °C 30.2 in /  1021.9 hPa SW 1 mph /  1.6 km/h 2 mph /  3.2 km/h 81 % 0 in /  0.0 mm
03:35 59.7 °F /  15.4 °C 54 °F /  12.2 °C 30.2 in /  1021.9 hPa Calm   2 mph /  3.2 km/h 81 % 0 in /  0.0 mm
03:45 60.1 °F /  15.6 °C 54.1 °F /  12.3 °C 30.2 in /  1021.9 hPa Calm   2 mph /  3.2 km/h 81 % 0 in /  0.0 mm
03:55 61.5 °F /  16.4 °C 55.2 °F /  12.9 °C 30.2 in /  1021.9 hPa South 1 mph /  1.6 km/h 2 mph /  3.2 km/h 80 % 0 in /  0.0 mm
04:05 61 °F /  16.1 °C 54.3 °F /  12.4 °C 30.2 in /  1021.9 hPa Calm   2 mph /  3.2 km/h 79 % 0 in /  0.0 mm
04:15 62.8 °F /  17.1 °C 55.8 °F /  13.2 °C 30.2 in /  1021.9 hPa SW 1 mph /  1.6 km/h 2 mph /  3.2 km/h 78 % 0 in /  0.0 mm
04:25 63.1 °F /  17.3 °C 55.8 °F /  13.2 °C 30.2 in /  1021.9 hPa South 2 mph /  3.2 km/h 2 mph /  3.2 km/h 77 % 0 in /  0.0 mm
04:35 63.1 °F /  17.3 °C 55.4 °F /  13.0 °C 30.2 in /  1021.9 hPa SW 1 mph /  1.6 km/h 2 mph /  3.2 km/h 76 % 0 in /  0.0 mm
04:45 64.8 °F /  18.2 °C 56.7 °F /  13.7 °C 30.2 in /  1021.9 hPa WSW 2 mph /  3.2 km/h 2 mph /  3.2 km/h 75 % 0 in /  0.0 mm
04:55 64.9 °F /  18.3 °C 56.5 °F /  13.6 °C 30.2 in /  1021.9 hPa ENE 1 mph /  1.6 km/h 3 mph /  4.8 km/h 74 % 0 in /  0.0 mm
05:05 65.3 °F /  18.5 °C 55.9 °F /  13.3 °C 30.2 in /  1021.9 hPa ENE 2 mph /  3.2 km/h 2 mph /  3.2 km/h 72 % 0 in /  0.0 mm
05:15 66.2 °F /  19.0 °C 56.5 °F /  13.6 °C 30.2 in /  1020.9 hPa ENE 3 mph /  4.8 km/h 4 mph /  6.4 km/h 71 % 0 in /  0.0 mm
05:25 66.6 °F /  19.2 °C 56.8 °F /  13.8 °C 30.2 in /  1021.9 hPa NE 3 mph /  4.8 km/h 3 mph /  4.8 km/h 71 % 0 in /  0.0 mm
05:35 67.1 °F /  19.5 °C 57 °F /  13.9 °C 30.2 in /  1021.9 hPa NE 1 mph /  1.6 km/h 4 mph /  6.4 km/h 70 % 0 in /  0.0 mm
05:45 68.4 °F /  20.2 °C 57.4 °F /  14.1 °C 30.2 in /  1021.9 hPa NE 1 mph /  1.6 km/h 2 mph /  3.2 km/h 68 % 0 in /  0.0 mm
05:55 67.8 °F /  19.9 °C 56.5 °F /  13.6 °C 30.2 in /  1021.9 hPa ENE 2 mph /  3.2 km/h 4 mph /  6.4 km/h 67 % 0 in /  0.0 mm
06:05 68.7 °F /  20.4 °C 56.8 °F /  13.8 °C 30.2 in /  1021.9 hPa East 2 mph /  3.2 km/h 3 mph /  4.8 km/h 66 % 0 in /  0.0 mm
11:10 69.4 °F /  20.8 °C 57.2 °F /  14.0 °C 30.2 in /  1021.9 hPa NE 3.3 mph /  5.3 km/h 3.3 mph /  5.3 km/h 65 % 0 in /  0.0 mm
11:15 69.1 °F /  20.6 °C 56.8 °F /  13.8 °C 30.2 in /  1021.9 hPa ENE 2.3 mph /  3.7 km/h 2.6 mph /  4.2 km/h 65 % 0 in /  0.0 mm
11:20 69.6 °F /  20.9 °C 56.8 °F /  13.8 °C 30.2 in /  1020.9 hPa ESE 3.5 mph /  5.6 km/h 3.5 mph /  5.6 km/h 64 % 0 in /  0.0 mm
11:25 70.2 °F /  21.2 °C 57 °F /  13.9 °C 30.2 in /  1020.9 hPa East 3.5 mph /  5.6 km/h 3.5 mph /  5.6 km/h 63 % 0 in /  0.0 mm
11:30 70.5 °F /  21.4 °C 57.4 °F /  14.1 °C 30.2 in /  1020.9 hPa ESE 3.6 mph /  5.8 km/h 3.6 mph /  5.8 km/h 63 % 0 in /  0.0 mm
11:35 70.5 °F /  21.4 °C 57.4 °F /  14.1 °C 30.2 in /  1020.9 hPa SSE 3.5 mph /  5.6 km/h 3.5 mph /  5.6 km/h 63 % 0 in /  0.0 mm
11:40 71.2 °F /  21.8 °C 57.6 °F /  14.2 °C 30.2 in /  1020.9 hPa ESE 4.6 mph /  7.4 km/h 4.6 mph /  7.4 km/h 62 % 0 in /  0.0 mm
11:45 72 °F /  22.2 °C 57.7 °F /  14.3 °C 30.2 in /  1020.9 hPa NNE 2.3 mph /  3.7 km/h 2.4 mph /  3.9 km/h 61 % 0 in /  0.0 mm
11:50 71.2 °F /  21.8 °C 57 °F /  13.9 °C 30.2 in /  1021.9 hPa NNE 3.5 mph /  5.6 km/h 3.5 mph /  5.6 km/h 61 % 0 in /  0.0 mm
11:55 70.9 °F /  21.6 °C 56.8 °F /  13.8 °C 30.2 in /  1021.9 hPa ESE 4.6 mph /  7.4 km/h 4.6 mph /  7.4 km/h 61 % 0 in /  0.0 mm
12:00 71.2 °F /  21.8 °C 57 °F /  13.9 °C 30.2 in /  1021.9 hPa ESE 2.3 mph /  3.7 km/h 2.3 mph /  3.7 km/h 61 % 0 in /  0.0 mm
12:05 71.8 °F /  22.1 °C 57 °F /  13.9 °C 30.2 in /  1021.9 hPa ESE 2.3 mph /  3.7 km/h   60 % 0 in /  0.0 mm
12:10 72.5 °F /  22.5 °C 57.7 °F /  14.3 °C 30.2 in /  1021.9 hPa NNE 3.5 mph /  5.6 km/h 3.5 mph /  5.6 km/h 60 % 0 in /  0.0 mm
12:15 72.1 °F /  22.3 °C 57 °F /  13.9 °C 30.2 in /  1021.9 hPa ESE 4.6 mph /  7.4 km/h 4.6 mph /  7.4 km/h 59 % 0 in /  0.0 mm
12:20 72.5 °F /  22.5 °C 57.4 °F /  14.1 °C 30.2 in /  1021.9 hPa ESE 4.6 mph /  7.4 km/h 4.6 mph /  7.4 km/h 59 % 0 in /  0.0 mm
12:25 73 °F /  22.8 °C 57.9 °F /  14.4 °C 30.2 in /  1021.9 hPa ESE 3.5 mph /  5.6 km/h 3.5 mph /  5.6 km/h 59 % 0 in /  0.0 mm
12:30 73.2 °F /  22.9 °C 57.9 °F /  14.4 °C 30.2 in /  1021.9 hPa NW 2.3 mph /  3.7 km/h 2.3 mph /  3.7 km/h 59 % 0 in /  0.0 mm
12:35 73.8 °F /  23.2 °C 58.1 °F /  14.5 °C 30.2 in /  1021.9 hPa SSW 2.3 mph /  3.7 km/h 2.3 mph /  3.7 km/h 58 % 0 in /  0.0 mm
12:40 73.9 °F /  23.3 °C 58.3 °F /  14.6 °C 30.2 in /  1021.9 hPa WSW 1.6 mph /  2.6 km/h 2 mph /  3.2 km/h 58 % 0 in /  0.0 mm
12:45 74.7 °F /  23.7 °C 59.4 °F /  15.2 °C 30.2 in /  1021.9 hPa SW 5.8 mph /  9.3 km/h 5.8 mph /  9.3 km/h 59 % 0 in /  0.0 mm
12:50 75 °F /  23.9 °C 57.7 °F /  14.3 °C 30.2 in /  1021.9 hPa WSW 2.3 mph /  3.7 km/h 2.3 mph /  3.7 km/h 55 % 0 in /  0.0 mm
12:55 75.9 °F /  24.4 °C 59.2 °F /  15.1 °C 30.2 in /  1021.9 hPa WNW 5.8 mph /  9.3 km/h 5.8 mph /  9.3 km/h 56 % 0 in /  0.0 mm
13:00 76.1 °F /  24.5 °C 58.8 °F /  14.9 °C 30.2 in /  1021.9 hPa West 5.8 mph /  9.3 km/h 5.8 mph /  9.3 km/h 55 % 0 in /  0.0 mm
13:01 76.1 °F /  24.5 °C 58.8 °F /  14.9 °C 30.2 in /  1020.9 hPa SW 5.9 mph /  9.5 km/h 5.9 mph /  9.5 km/h 55 % 0 in /  0.0 mm
13:06 76.3 °F /  24.6 °C 58.5 °F /  14.7 °C 30.2 in /  1020.9 hPa WNW 3.5 mph /  5.6 km/h 3.5 mph /  5.6 km/h 54 % 0 in /  0.0 mm
13:11 76.3 °F /  24.6 °C 57.9 °F /  14.4 °C 30.2 in /  1020.9 hPa WNW 5.8 mph /  9.3 km/h 5.8 mph /  9.3 km/h 53 % 0 in /  0.0 mm
13:16 75 °F /  23.9 °C 57.2 °F /  14.0 °C 30.2 in /  1020.9 hPa SW 3.5 mph /  5.6 km/h 3.5 mph /  5.6 km/h 54 % 0 in /  0.0 mm
13:21 74.7 °F /  23.7 °C 56.8 °F /  13.8 °C 30.2 in /  1020.9 hPa SSW 3.5 mph /  5.6 km/h 3.5 mph /  5.6 km/h 54 % 0 in /  0.0 mm
13:26 75 °F /  23.9 °C 57.2 °F /  14.0 °C 30.2 in /  1020.9 hPa SW 4.6 mph /  7.4 km/h 4.6 mph /  7.4 km/h 54 % 0 in /  0.0 mm
13:31 76.1 °F /  24.5 °C 57.7 °F /  14.3 °C 30.2 in /  1020.9 hPa WSW 5.8 mph /  9.3 km/h 5.8 mph /  9.3 km/h 53 % 0 in /  0.0 mm
13:36 76.6 °F /  24.8 °C 58.3 °F /  14.6 °C 30.2 in /  1020.9 hPa SSW 5.8 mph /  9.3 km/h 5.8 mph /  9.3 km/h 53 % 0 in /  0.0 mm
13:46 77 °F /  25.0 °C 56.8 °F /  13.8 °C 30.1 in /  1019.9 hPa SW 4.6 mph /  7.4 km/h 4.6 mph /  7.4 km/h 50 % 0 in /  0.0 mm
13:51 76.1 °F /  24.5 °C 56.7 °F /  13.7 °C 30.1 in /  1019.9 hPa SSW 3.5 mph /  5.6 km/h 3.5 mph /  5.6 km/h 51 % 0 in /  0.0 mm
13:56 76.8 °F /  24.9 °C 56.8 °F /  13.8 °C 30.1 in /  1019.9 hPa WSW 4 mph /  6.4 km/h 4 mph /  6.4 km/h 50 % 0 in /  0.0 mm
14:01 76.1 °F /  24.5 °C 56.1 °F /  13.4 °C 30.1 in /  1019.9 hPa SW 6.9 mph /  11.1 km/h 6.9 mph /  11.1 km/h 50 % 0 in /  0.0 mm
14:06 75.7 °F /  24.3 °C 55.8 °F /  13.2 °C 30.1 in /  1019.9 hPa WSW 8.1 mph /  13.0 km/h 8.1 mph /  13.0 km/h 50 % 0 in /  0.0 mm
14:11 76.1 °F /  24.5 °C 55.6 °F /  13.1 °C 30.1 in /  1019.9 hPa SSW 5.8 mph /  9.3 km/h 5.8 mph /  9.3 km/h 49 % 0 in /  0.0 mm
14:16 77.2 °F /  25.1 °C 56.5 °F /  13.6 °C 30.1 in /  1019.9 hPa SSW 5.9 mph /  9.5 km/h 5.9 mph /  9.5 km/h 49 % 0 in /  0.0 mm
14:21 77.2 °F /  25.1 °C 55.9 °F /  13.3 °C 30.1 in /  1019.9 hPa South 3.5 mph /  5.6 km/h 3.5 mph /  5.6 km/h 48 % 0 in /  0.0 mm
14:26 77.2 °F /  25.1 °C 55.9 °F /  13.3 °C 30.1 in /  1019.9 hPa WSW 4.6 mph /  7.4 km/h 4.6 mph /  7.4 km/h 48 % 0 in /  0.0 mm
14:31 77.4 °F /  25.2 °C 56.1 °F /  13.4 °C 30.1 in /  1019.9 hPa WSW 4.6 mph /  7.4 km/h 4.6 mph /  7.4 km/h 48 % 0 in /  0.0 mm
14:36 77.2 °F /  25.1 °C 55.4 °F /  13.0 °C 30.1 in /  1019.9 hPa SSW 4.6 mph /  7.4 km/h 4.6 mph /  7.4 km/h 47 % 0 in /  0.0 mm
14:41 77.4 °F /  25.2 °C 55.6 °F /  13.1 °C 30.1 in /  1019.9 hPa SW 4.6 mph /  7.4 km/h 4.6 mph /  7.4 km/h 47 % 0 in /  0.0 mm
14:46 77 °F /  25.0 °C 55.2 °F /  12.9 °C 30.1 in /  1018.8 hPa South 5.8 mph /  9.3 km/h 5.8 mph /  9.3 km/h 47 % 0 in /  0.0 mm
14:51 77.5 °F /  25.3 °C 55.8 °F /  13.2 °C 30.1 in /  1018.8 hPa SW 4.6 mph /  7.4 km/h 4.6 mph /  7.4 km/h 47 % 0 in /  0.0 mm
14:56 76.6 °F /  24.8 °C 55.6 °F /  13.1 °C 30.1 in /  1018.8 hPa SW 10.4 mph /  16.7 km/h 10.4 mph /  16.7 km/h 48 % 0 in /  0.0 mm
15:01 75.7 °F /  24.3 °C 54.7 °F /  12.6 °C 30.1 in /  1018.8 hPa WSW 9.2 mph /  14.8 km/h 9.2 mph /  14.8 km/h 48 % 0 in /  0.0 mm
15:06 76.3 °F /  24.6 °C 55 °F /  12.8 °C 30.1 in /  1018.8 hPa South 6.9 mph /  11.1 km/h 6.9 mph /  11.1 km/h 48 % 0 in /  0.0 mm
15:11 75.7 °F /  24.3 °C 54.7 °F /  12.6 °C 30.1 in /  1018.8 hPa SW 8.1 mph /  13.0 km/h 8.1 mph /  13.0 km/h 48 % 0 in /  0.0 mm
15:16 76.8 °F /  24.9 °C 55.6 °F /  13.1 °C 30.1 in /  1018.8 hPa WSW 5.9 mph /  9.5 km/h 5.9 mph /  9.5 km/h 48 % 0 in /  0.0 mm
15:21 77 °F /  25.0 °C 55.2 °F /  12.9 °C 30.1 in /  1018.8 hPa SW 6.2 mph /  10.0 km/h 6.2 mph /  10.0 km/h 47 % 0 in /  0.0 mm
15:26 76.8 °F /  24.9 °C 55 °F /  12.8 °C 30.1 in /  1018.8 hPa SW 11.5 mph /  18.5 km/h 11.5 mph /  18.5 km/h 47 % 0 in /  0.0 mm
15:31 77.7 °F /  25.4 °C 55.2 °F /  12.9 °C 30.1 in /  1018.8 hPa South 4.6 mph /  7.4 km/h 4.6 mph /  7.4 km/h 46 % 0 in /  0.0 mm
15:36 78.3 °F /  25.7 °C 55.8 °F /  13.2 °C 30.1 in /  1018.8 hPa West 5.8 mph /  9.3 km/h 5.8 mph /  9.3 km/h 46 % 0 in /  0.0 mm
15:41 78.3 °F /  25.7 °C 55.8 °F /  13.2 °C 30.1 in /  1018.8 hPa SW 8.1 mph /  13.0 km/h 8.1 mph /  13.0 km/h 46 % 0 in /  0.0 mm
15:46 77.5 °F /  25.3 °C 54.5 °F /  12.5 °C 30.1 in /  1018.8 hPa SW 5.8 mph /  9.3 km/h 5.8 mph /  9.3 km/h 45 % 0 in /  0.0 mm
15:51 78.1 °F /  25.6 °C 55 °F /  12.8 °C 30.1 in /  1018.8 hPa SW 8.1 mph /  13.0 km/h 8.1 mph /  13.0 km/h 45 % 0 in /  0.0 mm
15:56 78.1 °F /  25.6 °C 55 °F /  12.8 °C 30.1 in /  1018.8 hPa SSW 8.1 mph /  13.0 km/h 8.1 mph /  13.0 km/h 45 % 0 in /  0.0 mm
16:01 78.4 °F /  25.8 °C 55.2 °F /  12.9 °C 30.1 in /  1018.8 hPa WSW 7.8 mph /  12.6 km/h 7.8 mph /  12.6 km/h 45 % 0 in /  0.0 mm
16:06 78.1 °F /  25.6 °C 55 °F /  12.8 °C 30.1 in /  1018.8 hPa SSW 5.8 mph /  9.3 km/h 7.8 mph /  12.6 km/h 45 % 0 in /  0.0 mm
16:11 77.2 °F /  25.1 °C 53.6 °F /  12.0 °C 30.1 in /  1018.8 hPa SSW 12.7 mph /  20.4 km/h 12.7 mph /  20.4 km/h 44 % 0 in /  0.0 mm
16:16 77.7 °F /  25.4 °C 54.1 °F /  12.3 °C 30.1 in /  1018.8 hPa WSW 4.6 mph /  7.4 km/h 4.6 mph /  7.4 km/h 44 % 0 in /  0.0 mm
16:21 77.5 °F /  25.3 °C 54 °F /  12.2 °C 30.1 in /  1018.8 hPa WSW 9.2 mph /  14.8 km/h 9.2 mph /  14.8 km/h 44 % 0 in /  0.0 mm
16:26 76.8 °F /  24.9 °C 54 °F /  12.2 °C 30.1 in /  1018.8 hPa WSW 8.1 mph /  13.0 km/h 8.1 mph /  13.0 km/h 45 % 0 in /  0.0 mm
16:31 76.5 °F /  24.7 °C 53.4 °F /  11.9 °C 30.1 in /  1018.8 hPa SW 8.1 mph /  13.0 km/h 8.1 mph /  13.0 km/h 45 % 0 in /  0.0 mm
16:36 75.7 °F /  24.3 °C 52.9 °F /  11.6 °C 30.1 in /  1018.8 hPa SSW 4.3 mph /  6.9 km/h 4.3 mph /  6.9 km/h 45 % 0 in /  0.0 mm
16:41 75.4 °F /  24.1 °C 53.2 °F /  11.8 °C 30.1 in /  1018.8 hPa SW 9.2 mph /  14.8 km/h 9.2 mph /  14.8 km/h 46 % 0 in /  0.0 mm
16:46 75.2 °F /  24.0 °C 53.1 °F /  11.7 °C 30.1 in /  1018.8 hPa SW 6.2 mph /  10.0 km/h 6.2 mph /  10.0 km/h 46 % 0 in /  0.0 mm
16:51 75.2 °F /  24.0 °C 53.1 °F /  11.7 °C 30.1 in /  1018.8 hPa SSW 9.2 mph /  14.8 km/h 9.2 mph /  14.8 km/h 46 % 0 in /  0.0 mm
16:56 74.7 °F /  23.7 °C 53.1 °F /  11.7 °C 30.1 in /  1018.8 hPa West 8.1 mph /  13.0 km/h 8.1 mph /  13.0 km/h 47 % 0 in /  0.0 mm
17:01 74.7 °F /  23.7 °C 53.1 °F /  11.7 °C 30.1 in /  1018.8 hPa SSE 5.8 mph /  9.3 km/h 5.8 mph /  9.3 km/h 47 % 0 in /  0.0 mm
17:06 74.8 °F /  23.8 °C 53.2 °F /  11.8 °C 30.1 in /  1018.8 hPa South 3.5 mph /  5.6 km/h 3.5 mph /  5.6 km/h 47 % 0 in /  0.0 mm
17:11 74.3 °F /  23.5 °C 52.9 °F /  11.6 °C 30.1 in /  1018.8 hPa SSW 4.6 mph /  7.4 km/h 4.6 mph /  7.4 km/h 47 % 0 in /  0.0 mm
17:16 73.9 °F /  23.3 °C 53.1 °F /  11.7 °C 30.1 in /  1018.8 hPa SW 9.2 mph /  14.8 km/h 9.2 mph /  14.8 km/h 48 % 0 in /  0.0 mm
17:21 74.1 °F /  23.4 °C 53.2 °F /  11.8 °C 30.1 in /  1018.8 hPa SW 8.1 mph /  13.0 km/h 8.1 mph /  13.0 km/h 48 % 0 in /  0.0 mm
17:27 74.1 °F /  23.4 °C 53.2 °F /  11.8 °C 30.1 in /  1018.8 hPa SSW 10.4 mph /  16.7 km/h 10.4 mph /  16.7 km/h 48 % 0 in /  0.0 mm
17:32 74.3 °F /  23.5 °C 53.2 °F /  11.8 °C 30.1 in /  1017.8 hPa SW 5.8 mph /  9.3 km/h 5.8 mph /  9.3 km/h 48 % 0 in /  0.0 mm
17:37 74.5 °F /  23.6 °C 53.4 °F /  11.9 °C 30.1 in /  1017.8 hPa WSW 8.7 mph /  14.0 km/h 8.7 mph /  14.0 km/h 48 % 0 in /  0.0 mm
17:42 73.8 °F /  23.2 °C 53.4 °F /  11.9 °C 30.1 in /  1017.8 hPa SSW 5.8 mph /  9.3 km/h 5.8 mph /  9.3 km/h 49 % 0 in /  0.0 mm
17:47 73.6 °F /  23.1 °C 53.2 °F /  11.8 °C 30.1 in /  1018.8 hPa WSW 6.9 mph /  11.1 km/h 6.9 mph /  11.1 km/h 49 % 0 in /  0.0 mm
17:52 73 °F /  22.8 °C 53.2 °F /  11.8 °C 30.1 in /  1018.8 hPa SSW 9.2 mph /  14.8 km/h 9.2 mph /  14.8 km/h 50 % 0 in /  0.0 mm
17:57 72.7 °F /  22.6 °C 53.4 °F /  11.9 °C 30.1 in /  1018.8 hPa SSW 4.6 mph /  7.4 km/h 4.6 mph /  7.4 km/h 51 % 0 in /  0.0 mm
18:02 72.3 °F /  22.4 °C 53.2 °F /  11.8 °C 30.1 in /  1018.8 hPa SSW 6.9 mph /  11.1 km/h 6.9 mph /  11.1 km/h 51 % 0 in /  0.0 mm
18:07 72.3 °F /  22.4 °C 53.2 °F /  11.8 °C 30.1 in /  1018.8 hPa SW 4.6 mph /  7.4 km/h 4.6 mph /  7.4 km/h 51 % 0 in /  0.0 mm
18:12 72 °F /  22.2 °C 53.4 °F /  11.9 °C 30.1 in /  1018.8 hPa SW 6.2 mph /  10.0 km/h 6.2 mph /  10.0 km/h 52 % 0 in /  0.0 mm
18:17 71.6 °F /  22.0 °C 53.1 °F /  11.7 °C 30.1 in /  1018.8 hPa WSW 10.4 mph /  16.7 km/h 10.4 mph /  16.7 km/h 52 % 0 in /  0.0 mm
18:22 71.2 °F /  21.8 °C 53.2 °F /  11.8 °C 30.1 in /  1018.8 hPa SSW 9.4 mph /  15.1 km/h 9.4 mph /  15.1 km/h 53 % 0 in /  0.0 mm
18:27 70.9 °F /  21.6 °C 52.9 °F /  11.6 °C 30.1 in /  1018.8 hPa SSW 6.9 mph /  11.1 km/h 6.9 mph /  11.1 km/h 53 % 0 in /  0.0 mm
18:32 70.5 °F /  21.4 °C 53.1 °F /  11.7 °C 30.1 in /  1018.8 hPa West 5.8 mph /  9.3 km/h 5.8 mph /  9.3 km/h 54 % 0 in /  0.0 mm
18:37 70.3 °F /  21.3 °C 52.9 °F /  11.6 °C 30.1 in /  1018.8 hPa West 6 mph /  9.7 km/h 6 mph /  9.7 km/h 54 % 0 in /  0.0 mm
18:42 70.3 °F /  21.3 °C 53.4 °F /  11.9 °C 30.1 in /  1018.8 hPa WSW 3.5 mph /  5.6 km/h 3.5 mph /  5.6 km/h 55 % 0 in /  0.0 mm
18:47 70.2 °F /  21.2 °C 53.8 °F /  12.1 °C 30.1 in /  1018.8 hPa SSW 8.1 mph /  13.0 km/h 8.1 mph /  13.0 km/h 56 % 0 in /  0.0 mm
18:52 70 °F /  21.1 °C 53.6 °F /  12.0 °C 30.1 in /  1018.8 hPa SW 3.8 mph /  6.1 km/h 3.8 mph /  6.1 km/h 56 % 0 in /  0.0 mm
18:57 70 °F /  21.1 °C 54 °F /  12.2 °C 30.1 in /  1018.8 hPa SSW 4.6 mph /  7.4 km/h 4.6 mph /  7.4 km/h 57 % 0 in /  0.0 mm
19:02 70 °F /  21.1 °C 54 °F /  12.2 °C 30.1 in /  1019.9 hPa South 4.6 mph /  7.4 km/h 4.6 mph /  7.4 km/h 57 % 0 in /  0.0 mm
19:07 70 °F /  21.1 °C 54 °F /  12.2 °C 30.1 in /  1019.9 hPa SSW 5.8 mph /  9.3 km/h 5.8 mph /  9.3 km/h 57 % 0 in /  0.0 mm
19:12 70 °F /  21.1 °C 54 °F /  12.2 °C 30.1 in /  1019.9 hPa SSW 3.5 mph /  5.6 km/h 3.5 mph /  5.6 km/h 57 % 0 in /  0.0 mm
19:17 70.2 °F /  21.2 °C 54.1 °F /  12.3 °C 30.1 in /  1019.9 hPa SW 4.6 mph /  7.4 km/h 4.6 mph /  7.4 km/h 57 % 0 in /  0.0 mm
19:22 70.2 °F /  21.2 °C 54.7 °F /  12.6 °C 30.1 in /  1019.9 hPa WSW 2.3 mph /  3.7 km/h 2.3 mph /  3.7 km/h 58 % 0 in /  0.0 mm
19:25 66.6 °F /  19.2 °C 56.5 °F /  13.6 °C 30.2 in /  1022.9 hPa SW 1 mph /  1.6 km/h 2 mph /  3.2 km/h 70 % 0 in /  0.0 mm
19:27 70.2 °F /  21.2 °C 54.7 °F /  12.6 °C 30.1 in /  1019.9 hPa SW 3.6 mph /  5.8 km/h 3.6 mph /  5.8 km/h 58 % 0 in /  0.0 mm
19:32 70 °F /  21.1 °C 54.5 °F /  12.5 °C 30.1 in /  1019.9 hPa West 5.9 mph /  9.5 km/h 5.9 mph /  9.5 km/h 58 % 0 in /  0.0 mm
19:35 66.4 °F /  19.1 °C 56.3 °F /  13.5 °C 30.2 in /  1022.9 hPa SW 1 mph /  1.6 km/h 2 mph /  3.2 km/h 70 % 0 in /  0.0 mm
19:37 69.8 °F /  21.0 °C 54.3 °F /  12.4 °C 30.1 in /  1019.9 hPa SSE 3.5 mph /  5.6 km/h 3.5 mph /  5.6 km/h 58 % 0 in /  0.0 mm
19:42 69.6 °F /  20.9 °C 54.1 °F /  12.3 °C 30.1 in /  1019.9 hPa SSW 4.6 mph /  7.4 km/h 4.6 mph /  7.4 km/h 58 % 0 in /  0.0 mm
19:45 66.4 °F /  19.1 °C 56.7 °F /  13.7 °C 30.2 in /  1022.9 hPa SW 1 mph /  1.6 km/h 1 mph /  1.6 km/h 71 % 0 in /  0.0 mm
19:47 69.3 °F /  20.7 °C 54.3 °F /  12.4 °C 30.1 in /  1019.9 hPa SW 1.6 mph /  2.6 km/h 1.6 mph /  2.6 km/h 59 % 0 in /  0.0 mm
19:52 69.1 °F /  20.6 °C 54.1 °F /  12.3 °C 30.1 in /  1019.9 hPa SSW 2.3 mph /  3.7 km/h 2.3 mph /  3.7 km/h 59 % 0 in /  0.0 mm
19:55 66.4 °F /  19.1 °C 56.7 °F /  13.7 °C 30.2 in /  1022.9 hPa WSW 1 mph /  1.6 km/h 1 mph /  1.6 km/h 71 % 0 in /  0.0 mm
19:57 68.9 °F /  20.5 °C 54 °F /  12.2 °C 30.1 in /  1019.9 hPa WSW 2.3 mph /  3.7 km/h 2.3 mph /  3.7 km/h 59 % 0 in /  0.0 mm
20:02 68.9 °F /  20.5 °C 54.3 °F /  12.4 °C 30.1 in /  1019.9 hPa SSW 2.3 mph /  3.7 km/h 2.3 mph /  3.7 km/h 60 % 0 in /  0.0 mm
20:05 66.6 °F /  19.2 °C 56.8 °F /  13.8 °C 30.2 in /  1022.9 hPa Calm   1 mph /  1.6 km/h 71 % 0 in /  0.0 mm
20:07 68.9 °F /  20.5 °C 54.3 °F /  12.4 °C 30.1 in /  1019.9 hPa WSW 2.6 mph /  4.2 km/h 2.6 mph /  4.2 km/h 60 % 0 in /  0.0 mm
20:12 68.9 °F /  20.5 °C 54.3 °F /  12.4 °C 30.1 in /  1019.9 hPa SW 1.2 mph /  1.9 km/h   60 % 0 in /  0.0 mm
20:15 66.4 °F /  19.1 °C 56.7 °F /  13.7 °C 30.2 in /  1022.9 hPa Calm   2 mph /  3.2 km/h 71 % 0 in /  0.0 mm
20:17 68.7 °F /  20.4 °C 54.7 °F /  12.6 °C 30.2 in /  1020.9 hPa WSW 2.3 mph /  3.7 km/h 2.3 mph /  3.7 km/h 61 % 0 in /  0.0 mm
20:22 68.7 °F /  20.4 °C 54.7 °F /  12.6 °C 30.2 in /  1020.9 hPa SW 2.3 mph /  3.7 km/h 2.3 mph /  3.7 km/h 61 % 0 in /  0.0 mm
20:25 66.4 °F /  19.1 °C 56.7 °F /  13.7 °C 30.2 in /  1022.9 hPa WSW 1 mph /  1.6 km/h 1 mph /  1.6 km/h 71 % 0 in /  0.0 mm
20:27 68.7 °F /  20.4 °C 54.7 °F /  12.6 °C 30.2 in /  1020.9 hPa SW 1.2 mph /  1.9 km/h   61 % 0 in /  0.0 mm
20:32 68.7 °F /  20.4 °C 54.7 °F /  12.6 °C 30.2 in /  1021.9 hPa SW 5.8 mph /  9.3 km/h 5.8 mph /  9.3 km/h 61 % 0 in /  0.0 mm
20:35 66.4 °F /  19.1 °C 56.7 °F /  13.7 °C 30.2 in /  1022.9 hPa WSW 1 mph /  1.6 km/h 2 mph /  3.2 km/h 71 % 0 in /  0.0 mm
20:37 68.5 °F /  20.3 °C 54.7 °F /  12.6 °C 30.2 in /  1021.9 hPa SSW 2.9 mph /  4.7 km/h 2.9 mph /  4.7 km/h 61 % 0 in /  0.0 mm
20:42 68.5 °F /  20.3 °C 55 °F /  12.8 °C 30.2 in /  1021.9 hPa SW 2.9 mph /  4.7 km/h 2.9 mph /  4.7 km/h 62 % 0 in /  0.0 mm
20:45 66 °F /  18.9 °C 56.7 °F /  13.7 °C 30.2 in /  1022.9 hPa West 1 mph /  1.6 km/h 3 mph /  4.8 km/h 72 % 0 in /  0.0 mm
20:47 68.4 °F /  20.2 °C 54.9 °F /  12.7 °C 30.2 in /  1021.9 hPa SSW 4.6 mph /  7.4 km/h 4.6 mph /  7.4 km/h 62 % 0 in /  0.0 mm
20:52 68.2 °F /  20.1 °C 54.7 °F /  12.6 °C 30.2 in /  1021.9 hPa SW 2.3 mph /  3.7 km/h 2.3 mph /  3.7 km/h 62 % 0 in /  0.0 mm
20:55 65.7 °F /  18.7 °C 56.5 °F /  13.6 °C 30.2 in /  1022.9 hPa Calm   3 mph /  4.8 km/h 72 % 0 in /  0.0 mm
20:57 68.2 °F /  20.1 °C 55 °F /  12.8 °C 30.2 in /  1021.9 hPa Calm     63 % 0 in /  0.0 mm
21:02 68.2 °F /  20.1 °C 55 °F /  12.8 °C 30.2 in /  1021.9 hPa SW 1.2 mph /  1.9 km/h 1.2 mph /  1.9 km/h 63 % 0 in /  0.0 mm
21:05 65.5 °F /  18.6 °C 56.1 °F /  13.4 °C 30.2 in /  1022.9 hPa Calm     72 % 0 in /  0.0 mm
21:07 68 °F /  20.0 °C 54.9 °F /  12.7 °C 30.2 in /  1021.9 hPa SW 3.5 mph /  5.6 km/h 3.5 mph /  5.6 km/h 63 % 0 in /  0.0 mm
21:12 68 °F /  20.0 °C 54.9 °F /  12.7 °C 30.2 in /  1021.9 hPa SW 2.3 mph /  3.7 km/h 2.3 mph /  3.7 km/h 63 % 0 in /  0.0 mm
21:15 65.1 °F /  18.4 °C 55.9 °F /  13.3 °C 30.2 in /  1022.9 hPa Calm     72 % 0 in /  0.0 mm
21:17 68 °F /  20.0 °C 55.4 °F /  13.0 °C 30.2 in /  1020.9 hPa SW 2.3 mph /  3.7 km/h 2.3 mph /  3.7 km/h 64 % 0 in /  0.0 mm
21:22 68 °F /  20.0 °C 55.4 °F /  13.0 °C 30.2 in /  1020.9 hPa SSW 1.2 mph /  1.9 km/h   64 % 0 in /  0.0 mm
21:25 64.8 °F /  18.2 °C 55.9 °F /  13.3 °C 30.2 in /  1022.9 hPa Calm   1 mph /  1.6 km/h 73 % 0 in /  0.0 mm
21:27 68 °F /  20.0 °C 55.4 °F /  13.0 °C 30.2 in /  1020.9 hPa WSW 1.4 mph /  2.3 km/h 1.4 mph /  2.3 km/h 64 % 0 in /  0.0 mm
21:32 67.8 °F /  19.9 °C 55.6 °F /  13.1 °C 30.2 in /  1021.9 hPa SW 2.3 mph /  3.7 km/h 2.3 mph /  3.7 km/h 65 % 0 in /  0.0 mm
21:35 64.4 °F /  18.0 °C 55.6 °F /  13.1 °C 30.2 in /  1022.9 hPa Calm     73 % 0 in /  0.0 mm
21:37 67.8 °F /  19.9 °C 55.9 °F /  13.3 °C 30.2 in /  1021.9 hPa SW 1.4 mph /  2.3 km/h 1.4 mph /  2.3 km/h 66 % 0 in /  0.0 mm
21:42 67.6 °F /  19.8 °C 55.9 °F /  13.3 °C 30.2 in /  1021.9 hPa WNW 2.2 mph /  3.5 km/h 2.4 mph /  3.9 km/h 66 % 0 in /  0.0 mm
21:45 64 °F /  17.8 °C 55.6 °F /  13.1 °C 30.2 in /  1022.9 hPa Calm     74 % 0 in /  0.0 mm
21:47 67.5 °F /  19.7 °C 55.2 °F /  12.9 °C 30.2 in /  1021.9 hPa SW 2.9 mph /  4.7 km/h 2.9 mph /  4.7 km/h 65 % 0 in /  0.0 mm
21:52 67.5 °F /  19.7 °C 55.8 °F /  13.2 °C 30.2 in /  1021.9 hPa WSW 2.3 mph /  3.7 km/h 2.3 mph /  3.7 km/h 66 % 0 in /  0.0 mm
21:55 63.7 °F /  17.6 °C 55.2 °F /  12.9 °C 30.2 in /  1022.9 hPa Calm     74 % 0 in /  0.0 mm
21:57 67.3 °F /  19.6 °C 55.9 °F /  13.3 °C 30.2 in /  1021.9 hPa SW 0.9 mph /  1.4 km/h   67 % 0 in /  0.0 mm
22:02 67.1 °F /  19.5 °C 55.8 °F /  13.2 °C 30.2 in /  1021.9 hPa SW 1.4 mph /  2.3 km/h 1.4 mph /  2.3 km/h 67 % 0 in /  0.0 mm
22:05 63.5 °F /  17.5 °C 55.4 °F /  13.0 °C 30.2 in /  1022.9 hPa Calm     75 % 0 in /  0.0 mm
22:07 67.1 °F /  19.5 °C 55.8 °F /  13.2 °C 30.2 in /  1021.9 hPa SW 2.3 mph /  3.7 km/h 2.3 mph /  3.7 km/h 67 % 0 in /  0.0 mm
22:12 66.9 °F /  19.4 °C 55.6 °F /  13.1 °C 30.2 in /  1021.9 hPa SW 3.5 mph /  5.6 km/h 3.5 mph /  5.6 km/h 67 % 0 in /  0.0 mm
22:15 63.1 °F /  17.3 °C 55 °F /  12.8 °C 30.2 in /  1022.9 hPa WSW 1 mph /  1.6 km/h 2 mph /  3.2 km/h 75 % 0 in /  0.0 mm
22:17 66.7 °F /  19.3 °C 55.4 °F /  13.0 °C 30.2 in /  1021.9 hPa SW 1.2 mph /  1.9 km/h 1.2 mph /  1.9 km/h 67 % 0 in /  0.0 mm
22:22 66.7 °F /  19.3 °C 55.8 °F /  13.2 °C 30.2 in /  1021.9 hPa WSW 1.2 mph /  1.9 km/h   68 % 0 in /  0.0 mm
22:25 63.1 °F /  17.3 °C 55.4 °F /  13.0 °C 30.2 in /  1021.9 hPa Calm     76 % 0 in /  0.0 mm
22:27 66.6 °F /  19.2 °C 55.8 °F /  13.2 °C 30.2 in /  1021.9 hPa WSW 1.2 mph /  1.9 km/h   68 % 0 in /  0.0 mm
22:32 66.6 °F /  19.2 °C 55.8 °F /  13.2 °C 30.2 in /  1022.9 hPa West 1.2 mph /  1.9 km/h   68 % 0 in /  0.0 mm
22:35 63.1 °F /  17.3 °C 55.4 °F /  13.0 °C 30.2 in /  1021.9 hPa Calm     76 % 0 in /  0.0 mm
22:37 66.6 °F /  19.2 °C 56.1 °F /  13.4 °C 30.2 in /  1022.9 hPa Calm     69 % 0 in /  0.0 mm
22:42 66.6 °F /  19.2 °C 56.1 °F /  13.4 °C 30.2 in /  1022.9 hPa WSW 1.2 mph /  1.9 km/h 1.2 mph /  1.9 km/h 69 % 0 in /  0.0 mm
22:45 62.6 °F /  17.0 °C 54.9 °F /  12.7 °C 30.2 in /  1021.9 hPa West 1 mph /  1.6 km/h 2 mph /  3.2 km/h 76 % 0 in /  0.0 mm
22:47 66.6 °F /  19.2 °C 56.1 °F /  13.4 °C 30.2 in /  1022.9 hPa West 1.2 mph /  1.9 km/h   69 % 0 in /  0.0 mm
22:52 66.6 °F /  19.2 °C 56.1 °F /  13.4 °C 30.2 in /  1022.9 hPa Calm     69 % 0 in /  0.0 mm
22:55 62.6 °F /  17.0 °C 54.9 °F /  12.7 °C 30.2 in /  1021.9 hPa Calm   1 mph /  1.6 km/h 76 % 0 in /  0.0 mm
22:57 66.6 °F /  19.2 °C 56.1 °F /  13.4 °C 30.2 in /  1022.9 hPa SW 1.2 mph /  1.9 km/h   69 % 0 in /  0.0 mm
23:02 66.6 °F /  19.2 °C 56.1 °F /  13.4 °C 30.2 in /  1022.9 hPa West 1.2 mph /  1.9 km/h 1.2 mph /  1.9 km/h 69 % 0 in /  0.0 mm
23:05 62.2 °F /  16.8 °C 55.2 °F /  12.9 °C 30.2 in /  1021.9 hPa SSW 1 mph /  1.6 km/h 1 mph /  1.6 km/h 78 % 0 in /  0.0 mm
23:07 66.6 °F /  19.2 °C 56.1 °F /  13.4 °C 30.2 in /  1022.9 hPa WSW 2.3 mph /  3.7 km/h 2.3 mph /  3.7 km/h 69 % 0 in /  0.0 mm
23:12 66.7 °F /  19.3 °C 56.1 °F /  13.4 °C 30.2 in /  1022.9 hPa SW 2.3 mph /  3.7 km/h 2.3 mph /  3.7 km/h 69 % 0 in /  0.0 mm
23:15 62.2 °F /  16.8 °C 55.2 °F /  12.9 °C 30.2 in /  1021.9 hPa Calm   1 mph /  1.6 km/h 78 % 0 in /  0.0 mm
23:17 66.7 °F /  19.3 °C 56.1 °F /  13.4 °C 30.2 in /  1022.9 hPa WSW 2.2 mph /  3.5 km/h 2.2 mph /  3.5 km/h 69 % 0 in /  0.0 mm
23:22 66.7 °F /  19.3 °C 56.7 °F /  13.7 °C 30.2 in /  1022.9 hPa WSW 1.6 mph /  2.6 km/h 1.6 mph /  2.6 km/h 70 % 0 in /  0.0 mm
23:25 62.1 °F /  16.7 °C 55 °F /  12.8 °C 30.2 in /  1021.9 hPa Calm     78 % 0 in /  0.0 mm
23:27 66.7 °F /  19.3 °C 56.7 °F /  13.7 °C 30.2 in /  1022.9 hPa SW 1.2 mph /  1.9 km/h   70 % 0 in /  0.0 mm
23:32 66.6 °F /  19.2 °C 56.5 °F /  13.6 °C 30.2 in /  1022.9 hPa WNW 1.2 mph /  1.9 km/h   70 % 0 in /  0.0 mm
23:35 62.2 °F /  16.8 °C 55.2 °F /  12.9 °C 30.2 in /  1021.9 hPa Calm   1 mph /  1.6 km/h 78 % 0 in /  0.0 mm
23:37 66.6 °F /  19.2 °C 56.5 °F /  13.6 °C 30.2 in /  1022.9 hPa SW 2.3 mph /  3.7 km/h 2.3 mph /  3.7 km/h 70 % 0 in /  0.0 mm
23:42 66.6 °F /  19.2 °C 56.5 °F /  13.6 °C 30.2 in /  1022.9 hPa WSW 1.2 mph /  1.9 km/h 1.2 mph /  1.9 km/h 70 % 0 in /  0.0 mm
23:45 62.2 °F /  16.8 °C 55.6 °F /  13.1 °C 30.2 in /  1021.9 hPa Calm     79 % 0 in /  0.0 mm
23:47 66.6 °F /  19.2 °C 56.5 °F /  13.6 °C 30.2 in /  1022.9 hPa WSW 1.2 mph /  1.9 km/h 1.2 mph /  1.9 km/h 70 % 0 in /  0.0 mm
23:52 66.6 °F /  19.2 °C 56.5 °F /  13.6 °C 30.2 in /  1022.9 hPa WSW 1.2 mph /  1.9 km/h   70 % 0 in /  0.0 mm
23:55 62.1 °F /  16.7 °C 55.6 °F /  13.1 °C 30.2 in /  1021.9 hPa Calm   2 mph /  3.2 km/h 79 % 0 in /  0.0 mm
23:57 66.6 °F /  19.2 °C 56.5 °F /  13.6 °C 30.2 in /  1022.9 hPa SW 2.3 mph /  3.7 km/h 2.3 mph /  3.7 km/h 70 % 0 in /  0.0 mm
Meteo Sesrovires
Elogis d' Weather Underground - 3.75 mb

Guio original per  Jim McMurry - jmcmurry@mwt.net Adaptat per a la plantilla per  Wim van der Kuil - Leuven-Template.eu

Trobareu la nostra informacio del temps tambe a:

Weather Underground

AWEKAS